sensor_id;sensor_type;location;lat;lon;timestamp;P1;durP1;ratioP1;P2;durP2;ratioP2
32780;SDS011;19136;47.032;15.502;2022-07-05T00:01:49;7.20;;;3.70;;
32780;SDS011;19136;47.032;15.502;2022-07-05T00:04:16;5.65;;;4.03;;
32780;SDS011;19136;47.032;15.502;2022-07-05T00:06:42;8.27;;;3.80;;
32780;SDS011;19136;47.032;15.502;2022-07-05T00:09:26;9.75;;;3.53;;
32780;SDS011;19136;47.032;15.502;2022-07-05T00:11:52;15.48;;;4.28;;
32780;SDS011;19136;47.032;15.502;2022-07-05T00:14:17;13.43;;;4.45;;
32780;SDS011;19136;47.032;15.502;2022-07-05T00:16:43;11.70;;;3.88;;
32780;SDS011;19136;47.032;15.502;2022-07-05T00:19:08;7.00;;;3.45;;
32780;SDS011;19136;47.032;15.502;2022-07-05T00:21:33;6.82;;;3.33;;
32780;SDS011;19136;47.032;15.502;2022-07-05T00:23:59;10.57;;;3.67;;
32780;SDS011;19136;47.032;15.502;2022-07-05T00:26:24;9.68;;;3.47;;
32780;SDS011;19136;47.032;15.502;2022-07-05T00:28:50;9.02;;;3.80;;
32780;SDS011;19136;47.032;15.502;2022-07-05T00:31:15;4.57;;;2.90;;
32780;SDS011;19136;47.032;15.502;2022-07-05T00:33:41;5.53;;;3.20;;
32780;SDS011;19136;47.032;15.502;2022-07-05T00:36:06;7.25;;;4.40;;
32780;SDS011;19136;47.032;15.502;2022-07-05T00:38:32;10.38;;;3.53;;
32780;SDS011;19136;47.032;15.502;2022-07-05T00:40:58;10.70;;;4.05;;
32780;SDS011;19136;47.032;15.502;2022-07-05T00:43:23;8.77;;;4.25;;
32780;SDS011;19136;47.032;15.502;2022-07-05T00:45:49;8.60;;;4.53;;
32780;SDS011;19136;47.032;15.502;2022-07-05T00:48:14;8.35;;;3.97;;
32780;SDS011;19136;47.032;15.502;2022-07-05T00:50:40;10.90;;;3.90;;
32780;SDS011;19136;47.032;15.502;2022-07-05T00:53:07;7.45;;;3.97;;
32780;SDS011;19136;47.032;15.502;2022-07-05T00:55:34;8.68;;;3.33;;
32780;SDS011;19136;47.032;15.502;2022-07-05T00:57:59;7.78;;;3.80;;
32780;SDS011;19136;47.032;15.502;2022-07-05T01:00:25;6.43;;;4.13;;
32780;SDS011;19136;47.032;15.502;2022-07-05T01:02:51;10.98;;;4.88;;
32780;SDS011;19136;47.032;15.502;2022-07-05T01:05:16;10.80;;;4.20;;
32780;SDS011;19136;47.032;15.502;2022-07-05T01:07:42;9.40;;;3.63;;
32780;SDS011;19136;47.032;15.502;2022-07-05T01:10:07;9.43;;;3.35;;
32780;SDS011;19136;47.032;15.502;2022-07-05T01:12:33;6.07;;;3.78;;
32780;SDS011;19136;47.032;15.502;2022-07-05T01:14:59;6.55;;;3.70;;
32780;SDS011;19136;47.032;15.502;2022-07-05T01:17:24;4.72;;;3.38;;
32780;SDS011;19136;47.032;15.502;2022-07-05T01:19:50;7.75;;;3.63;;
32780;SDS011;19136;47.032;15.502;2022-07-05T01:22:18;9.70;;;4.32;;
32780;SDS011;19136;47.032;15.502;2022-07-05T01:24:48;5.78;;;3.38;;
32780;SDS011;19136;47.032;15.502;2022-07-05T01:27:14;5.95;;;3.53;;
32780;SDS011;19136;47.032;15.502;2022-07-05T01:29:40;5.90;;;3.47;;
32780;SDS011;19136;47.032;15.502;2022-07-05T01:32:06;7.30;;;3.42;;
32780;SDS011;19136;47.032;15.502;2022-07-05T01:34:33;8.90;;;3.67;;
32780;SDS011;19136;47.032;15.502;2022-07-05T01:37:03;12.45;;;4.18;;
32780;SDS011;19136;47.032;15.502;2022-07-05T01:39:29;9.02;;;4.22;;
32780;SDS011;19136;47.032;15.502;2022-07-05T01:41:55;9.23;;;4.20;;
32780;SDS011;19136;47.032;15.502;2022-07-05T01:44:21;6.63;;;4.20;;
32780;SDS011;19136;47.032;15.502;2022-07-05T01:46:46;10.23;;;4.75;;
32780;SDS011;19136;47.032;15.502;2022-07-05T01:49:16;11.48;;;5.63;;
32780;SDS011;19136;47.032;15.502;2022-07-05T01:51:51;6.47;;;4.90;;
32780;SDS011;19136;47.032;15.502;2022-07-05T01:54:23;9.02;;;5.40;;
32780;SDS011;19136;47.032;15.502;2022-07-05T01:56:48;11.65;;;6.05;;
32780;SDS011;19136;47.032;15.502;2022-07-05T01:59:14;7.75;;;4.75;;
32780;SDS011;19136;47.032;15.502;2022-07-05T02:01:40;13.57;;;5.57;;
32780;SDS011;19136;47.032;15.502;2022-07-05T02:04:06;11.38;;;5.28;;
32780;SDS011;19136;47.032;15.502;2022-07-05T02:06:33;8.13;;;4.22;;
32780;SDS011;19136;47.032;15.502;2022-07-05T02:09:03;11.40;;;5.05;;
32780;SDS011;19136;47.032;15.502;2022-07-05T02:11:30;11.55;;;5.07;;
32780;SDS011;19136;47.032;15.502;2022-07-05T02:13:57;9.68;;;4.53;;
32780;SDS011;19136;47.032;15.502;2022-07-05T02:16:23;6.85;;;4.72;;
32780;SDS011;19136;47.032;15.502;2022-07-05T02:18:50;13.95;;;4.35;;
32780;SDS011;19136;47.032;15.502;2022-07-05T02:21:16;9.45;;;4.18;;
32780;SDS011;19136;47.032;15.502;2022-07-05T02:23:42;8.05;;;4.13;;
32780;SDS011;19136;47.032;15.502;2022-07-05T02:26:08;8.40;;;4.40;;
32780;SDS011;19136;47.032;15.502;2022-07-05T02:28:33;11.65;;;5.45;;
32780;SDS011;19136;47.032;15.502;2022-07-05T02:30:59;10.70;;;5.32;;
32780;SDS011;19136;47.032;15.502;2022-07-05T02:33:24;8.50;;;5.00;;
32780;SDS011;19136;47.032;15.502;2022-07-05T02:35:50;8.60;;;4.53;;
32780;SDS011;19136;47.032;15.502;2022-07-05T02:38:15;9.40;;;5.15;;
32780;SDS011;19136;47.032;15.502;2022-07-05T02:40:41;6.75;;;4.97;;
32780;SDS011;19136;47.032;15.502;2022-07-05T02:43:06;10.73;;;5.38;;
32780;SDS011;19136;47.032;15.502;2022-07-05T02:45:32;8.05;;;3.83;;
32780;SDS011;19136;47.032;15.502;2022-07-05T02:47:57;9.75;;;4.50;;
32780;SDS011;19136;47.032;15.502;2022-07-05T02:50:23;9.93;;;4.47;;
32780;SDS011;19136;47.032;15.502;2022-07-05T02:52:48;11.23;;;4.53;;
32780;SDS011;19136;47.032;15.502;2022-07-05T02:55:14;8.05;;;3.78;;
32780;SDS011;19136;47.032;15.502;2022-07-05T02:57:39;7.00;;;3.70;;
32780;SDS011;19136;47.032;15.502;2022-07-05T03:00:05;6.55;;;3.88;;
32780;SDS011;19136;47.032;15.502;2022-07-05T03:02:31;7.93;;;3.72;;
32780;SDS011;19136;47.032;15.502;2022-07-05T03:04:57;7.30;;;3.50;;
32780;SDS011;19136;47.032;15.502;2022-07-05T03:07:22;3.92;;;3.30;;
32780;SDS011;19136;47.032;15.502;2022-07-05T03:09:48;6.07;;;3.50;;
32780;SDS011;19136;47.032;15.502;2022-07-05T03:12:14;5.32;;;3.30;;
32780;SDS011;19136;47.032;15.502;2022-07-05T03:14:39;6.25;;;3.65;;
32780;SDS011;19136;47.032;15.502;2022-07-05T03:17:05;5.30;;;3.40;;
32780;SDS011;19136;47.032;15.502;2022-07-05T03:19:30;6.95;;;4.25;;
32780;SDS011;19136;47.032;15.502;2022-07-05T03:21:56;10.45;;;4.93;;
32780;SDS011;19136;47.032;15.502;2022-07-05T03:24:21;10.38;;;4.30;;
32780;SDS011;19136;47.032;15.502;2022-07-05T03:26:46;7.57;;;4.40;;
32780;SDS011;19136;47.032;15.502;2022-07-05T03:29:12;8.43;;;4.43;;
32780;SDS011;19136;47.032;15.502;2022-07-05T03:31:37;7.53;;;4.68;;
32780;SDS011;19136;47.032;15.502;2022-07-05T03:34:03;6.63;;;4.28;;
32780;SDS011;19136;47.032;15.502;2022-07-05T03:36:28;8.98;;;5.18;;
32780;SDS011;19136;47.032;15.502;2022-07-05T03:38:54;8.15;;;4.63;;
32780;SDS011;19136;47.032;15.502;2022-07-05T03:41:20;7.88;;;4.47;;
32780;SDS011;19136;47.032;15.502;2022-07-05T03:43:45;8.57;;;4.50;;
32780;SDS011;19136;47.032;15.502;2022-07-05T03:46:11;9.18;;;5.25;;
32780;SDS011;19136;47.032;15.502;2022-07-05T03:48:36;6.53;;;3.92;;
32780;SDS011;19136;47.032;15.502;2022-07-05T03:51:02;8.43;;;4.18;;
32780;SDS011;19136;47.032;15.502;2022-07-05T03:53:27;6.43;;;4.15;;
32780;SDS011;19136;47.032;15.502;2022-07-05T03:55:55;7.40;;;4.32;;
32780;SDS011;19136;47.032;15.502;2022-07-05T03:58:21;7.00;;;4.07;;
32780;SDS011;19136;47.032;15.502;2022-07-05T04:00:46;5.72;;;4.20;;
32780;SDS011;19136;47.032;15.502;2022-07-05T04:03:12;7.45;;;3.92;;
32780;SDS011;19136;47.032;15.502;2022-07-05T04:05:37;5.78;;;4.18;;
32780;SDS011;19136;47.032;15.502;2022-07-05T04:08:04;7.13;;;4.20;;
32780;SDS011;19136;47.032;15.502;2022-07-05T04:10:30;5.68;;;3.85;;
32780;SDS011;19136;47.032;15.502;2022-07-05T04:12:55;7.22;;;4.38;;
32780;SDS011;19136;47.032;15.502;2022-07-05T04:15:21;8.98;;;4.20;;
32780;SDS011;19136;47.032;15.502;2022-07-05T04:20:12;7.07;;;4.60;;
32780;SDS011;19136;47.032;15.502;2022-07-05T04:22:38;8.07;;;4.50;;
32780;SDS011;19136;47.032;15.502;2022-07-05T04:25:03;6.70;;;4.68;;
32780;SDS011;19136;47.032;15.502;2022-07-05T04:27:41;6.43;;;4.30;;
32780;SDS011;19136;47.032;15.502;2022-07-05T04:30:08;6.13;;;4.63;;
32780;SDS011;19136;47.032;15.502;2022-07-05T04:32:35;9.57;;;4.70;;
32780;SDS011;19136;47.032;15.502;2022-07-05T04:35:00;8.35;;;4.57;;
32780;SDS011;19136;47.032;15.502;2022-07-05T04:37:26;9.82;;;6.15;;
32780;SDS011;19136;47.032;15.502;2022-07-05T04:39:52;4.63;;;3.15;;
32780;SDS011;19136;47.032;15.502;2022-07-05T04:42:18;6.32;;;2.90;;
32780;SDS011;19136;47.032;15.502;2022-07-05T04:44:43;4.00;;;2.95;;
32780;SDS011;19136;47.032;15.502;2022-07-05T04:47:09;5.78;;;2.83;;
32780;SDS011;19136;47.032;15.502;2022-07-05T04:49:34;9.27;;;3.53;;
32780;SDS011;19136;47.032;15.502;2022-07-05T04:52:00;4.82;;;2.65;;
32780;SDS011;19136;47.032;15.502;2022-07-05T04:54:25;6.30;;;3.15;;
32780;SDS011;19136;47.032;15.502;2022-07-05T04:56:51;7.18;;;3.25;;
32780;SDS011;19136;47.032;15.502;2022-07-05T04:59:16;6.78;;;3.42;;
32780;SDS011;19136;47.032;15.502;2022-07-05T05:01:42;8.70;;;3.00;;
32780;SDS011;19136;47.032;15.502;2022-07-05T05:04:07;7.47;;;3.30;;
32780;SDS011;19136;47.032;15.502;2022-07-05T05:06:33;5.28;;;3.13;;
32780;SDS011;19136;47.032;15.502;2022-07-05T05:08:59;6.07;;;3.25;;
32780;SDS011;19136;47.032;15.502;2022-07-05T05:11:24;5.13;;;3.25;;
32780;SDS011;19136;47.032;15.502;2022-07-05T05:13:50;7.65;;;2.95;;
32780;SDS011;19136;47.032;15.502;2022-07-05T05:16:15;5.50;;;3.22;;
32780;SDS011;19136;47.032;15.502;2022-07-05T05:18:41;5.68;;;3.17;;
32780;SDS011;19136;47.032;15.502;2022-07-05T05:21:06;5.03;;;3.55;;
32780;SDS011;19136;47.032;15.502;2022-07-05T05:23:32;3.45;;;2.78;;
32780;SDS011;19136;47.032;15.502;2022-07-05T05:25:58;8.15;;;3.65;;
32780;SDS011;19136;47.032;15.502;2022-07-05T05:28:23;5.35;;;3.80;;
32780;SDS011;19136;47.032;15.502;2022-07-05T05:30:49;7.63;;;3.80;;
32780;SDS011;19136;47.032;15.502;2022-07-05T05:33:14;8.32;;;5.85;;
32780;SDS011;19136;47.032;15.502;2022-07-05T05:35:40;5.70;;;3.45;;
32780;SDS011;19136;47.032;15.502;2022-07-05T05:38:05;5.60;;;3.78;;
32780;SDS011;19136;47.032;15.502;2022-07-05T05:40:31;6.43;;;4.93;;
32780;SDS011;19136;47.032;15.502;2022-07-05T05:43:02;8.95;;;4.63;;
32780;SDS011;19136;47.032;15.502;2022-07-05T05:45:28;6.50;;;4.97;;
32780;SDS011;19136;47.032;15.502;2022-07-05T05:47:58;7.57;;;5.47;;
32780;SDS011;19136;47.032;15.502;2022-07-05T05:52:53;10.20;;;5.70;;
32780;SDS011;19136;47.032;15.502;2022-07-05T05:55:20;10.43;;;6.07;;
32780;SDS011;19136;47.032;15.502;2022-07-05T05:57:47;7.13;;;4.90;;
32780;SDS011;19136;47.032;15.502;2022-07-05T06:00:13;7.57;;;5.05;;
32780;SDS011;19136;47.032;15.502;2022-07-05T06:02:40;14.10;;;5.47;;
32780;SDS011;19136;47.032;15.502;2022-07-05T06:05:06;7.53;;;5.32;;
32780;SDS011;19136;47.032;15.502;2022-07-05T06:07:42;9.82;;;5.93;;
32780;SDS011;19136;47.032;15.502;2022-07-05T06:10:14;12.07;;;7.47;;
32780;SDS011;19136;47.032;15.502;2022-07-05T06:12:40;13.70;;;7.18;;
32780;SDS011;19136;47.032;15.502;2022-07-05T06:15:06;9.43;;;5.93;;
32780;SDS011;19136;47.032;15.502;2022-07-05T06:17:36;10.25;;;5.65;;
32780;SDS011;19136;47.032;15.502;2022-07-05T06:20:08;9.35;;;5.03;;
32780;SDS011;19136;47.032;15.502;2022-07-05T06:22:36;12.80;;;5.57;;
32780;SDS011;19136;47.032;15.502;2022-07-05T06:25:03;7.43;;;4.97;;
32780;SDS011;19136;47.032;15.502;2022-07-05T06:27:29;8.90;;;4.80;;
32780;SDS011;19136;47.032;15.502;2022-07-05T06:29:54;5.78;;;4.85;;
32780;SDS011;19136;47.032;15.502;2022-07-05T06:32:21;5.95;;;4.82;;
32780;SDS011;19136;47.032;15.502;2022-07-05T06:34:46;8.52;;;4.80;;
32780;SDS011;19136;47.032;15.502;2022-07-05T06:37:12;7.68;;;5.03;;
32780;SDS011;19136;47.032;15.502;2022-07-05T06:39:38;8.10;;;4.85;;
32780;SDS011;19136;47.032;15.502;2022-07-05T06:42:03;9.65;;;5.03;;
32780;SDS011;19136;47.032;15.502;2022-07-05T06:44:29;7.25;;;5.15;;
32780;SDS011;19136;47.032;15.502;2022-07-05T06:46:54;7.90;;;4.80;;
32780;SDS011;19136;47.032;15.502;2022-07-05T06:49:20;9.57;;;4.82;;
32780;SDS011;19136;47.032;15.502;2022-07-05T06:51:46;8.00;;;4.68;;
32780;SDS011;19136;47.032;15.502;2022-07-05T06:54:11;5.97;;;4.63;;
32780;SDS011;19136;47.032;15.502;2022-07-05T06:56:37;7.20;;;4.15;;
32780;SDS011;19136;47.032;15.502;2022-07-05T06:59:03;6.97;;;4.22;;
32780;SDS011;19136;47.032;15.502;2022-07-05T07:01:28;8.05;;;4.47;;
32780;SDS011;19136;47.032;15.502;2022-07-05T07:03:54;7.82;;;4.40;;
32780;SDS011;19136;47.032;15.502;2022-07-05T07:06:19;6.75;;;4.05;;
32780;SDS011;19136;47.032;15.502;2022-07-05T07:08:45;7.15;;;4.35;;
32780;SDS011;19136;47.032;15.502;2022-07-05T07:11:29;6.35;;;4.40;;
32780;SDS011;19136;47.032;15.502;2022-07-05T07:13:55;5.30;;;4.30;;
32780;SDS011;19136;47.032;15.502;2022-07-05T07:16:21;11.32;;;4.90;;
32780;SDS011;19136;47.032;15.502;2022-07-05T07:18:46;7.53;;;4.30;;
32780;SDS011;19136;47.032;15.502;2022-07-05T07:21:12;7.18;;;4.00;;
32780;SDS011;19136;47.032;15.502;2022-07-05T07:23:37;8.43;;;3.97;;
32780;SDS011;19136;47.032;15.502;2022-07-05T07:26:03;5.38;;;3.50;;
32780;SDS011;19136;47.032;15.502;2022-07-05T07:28:28;4.82;;;3.78;;
32780;SDS011;19136;47.032;15.502;2022-07-05T07:30:55;8.98;;;4.45;;
32780;SDS011;19136;47.032;15.502;2022-07-05T07:33:21;8.75;;;4.40;;
32780;SDS011;19136;47.032;15.502;2022-07-05T07:35:46;7.22;;;3.85;;
32780;SDS011;19136;47.032;15.502;2022-07-05T07:38:12;6.88;;;4.15;;
32780;SDS011;19136;47.032;15.502;2022-07-05T07:40:37;6.78;;;3.67;;
32780;SDS011;19136;47.032;15.502;2022-07-05T07:43:04;6.85;;;3.85;;
32780;SDS011;19136;47.032;15.502;2022-07-05T07:45:30;5.85;;;4.03;;
32780;SDS011;19136;47.032;15.502;2022-07-05T07:47:56;11.48;;;3.40;;
32780;SDS011;19136;47.032;15.502;2022-07-05T07:50:21;5.15;;;3.78;;
32780;SDS011;19136;47.032;15.502;2022-07-05T07:52:47;5.32;;;3.85;;
32780;SDS011;19136;47.032;15.502;2022-07-05T07:55:13;5.43;;;3.33;;
32780;SDS011;19136;47.032;15.502;2022-07-05T07:57:39;4.50;;;3.30;;
32780;SDS011;19136;47.032;15.502;2022-07-05T08:00:05;6.03;;;3.92;;
32780;SDS011;19136;47.032;15.502;2022-07-05T08:02:31;8.32;;;3.90;;
32780;SDS011;19136;47.032;15.502;2022-07-05T08:04:57;5.30;;;3.97;;
32780;SDS011;19136;47.032;15.502;2022-07-05T08:07:23;6.07;;;3.97;;
32780;SDS011;19136;47.032;15.502;2022-07-05T08:09:51;5.00;;;3.63;;
32780;SDS011;19136;47.032;15.502;2022-07-05T08:12:18;4.53;;;3.63;;
32780;SDS011;19136;47.032;15.502;2022-07-05T08:14:44;5.45;;;3.90;;
32780;SDS011;19136;47.032;15.502;2022-07-05T08:17:11;6.65;;;3.50;;
32780;SDS011;19136;47.032;15.502;2022-07-05T08:19:37;5.88;;;3.28;;
32780;SDS011;19136;47.032;15.502;2022-07-05T08:22:21;7.63;;;3.90;;
32780;SDS011;19136;47.032;15.502;2022-07-05T08:24:47;10.20;;;3.65;;
32780;SDS011;19136;47.032;15.502;2022-07-05T08:27:13;6.65;;;4.10;;
32780;SDS011;19136;47.032;15.502;2022-07-05T08:29:39;9.07;;;3.45;;
32780;SDS011;19136;47.032;15.502;2022-07-05T08:32:04;4.95;;;3.72;;
32780;SDS011;19136;47.032;15.502;2022-07-05T08:34:30;5.70;;;3.97;;
32780;SDS011;19136;47.032;15.502;2022-07-05T08:36:56;6.15;;;4.05;;
32780;SDS011;19136;47.032;15.502;2022-07-05T08:39:21;5.07;;;3.72;;
32780;SDS011;19136;47.032;15.502;2022-07-05T08:41:48;10.05;;;4.13;;
32780;SDS011;19136;47.032;15.502;2022-07-05T08:44:18;5.68;;;3.35;;
32780;SDS011;19136;47.032;15.502;2022-07-05T08:46:45;6.22;;;3.95;;
32780;SDS011;19136;47.032;15.502;2022-07-05T08:49:12;7.95;;;3.80;;
32780;SDS011;19136;47.032;15.502;2022-07-05T08:51:40;6.40;;;3.75;;
32780;SDS011;19136;47.032;15.502;2022-07-05T08:54:08;4.97;;;3.30;;
32780;SDS011;19136;47.032;15.502;2022-07-05T08:56:35;6.30;;;3.60;;
32780;SDS011;19136;47.032;15.502;2022-07-05T08:59:01;5.65;;;3.42;;
32780;SDS011;19136;47.032;15.502;2022-07-05T09:01:28;4.90;;;3.50;;
32780;SDS011;19136;47.032;15.502;2022-07-05T09:04:00;6.90;;;3.20;;
32780;SDS011;19136;47.032;15.502;2022-07-05T09:06:28;6.53;;;3.42;;
32780;SDS011;19136;47.032;15.502;2022-07-05T09:08:56;6.32;;;3.58;;
32780;SDS011;19136;47.032;15.502;2022-07-05T09:11:45;6.75;;;3.10;;
32780;SDS011;19136;47.032;15.502;2022-07-05T09:17:03;4.78;;;3.13;;
32780;SDS011;19136;47.032;15.502;2022-07-05T09:19:29;7.78;;;3.10;;
32780;SDS011;19136;47.032;15.502;2022-07-05T09:22:05;4.13;;;2.72;;
32780;SDS011;19136;47.032;15.502;2022-07-05T09:24:52;3.20;;;2.45;;
32780;SDS011;19136;47.032;15.502;2022-07-05T09:27:17;6.45;;;2.63;;
32780;SDS011;19136;47.032;15.502;2022-07-05T09:29:55;3.95;;;2.00;;
32780;SDS011;19136;47.032;15.502;2022-07-05T09:32:24;2.10;;;1.58;;
32780;SDS011;19136;47.032;15.502;2022-07-05T09:34:50;6.53;;;0.90;;
32780;SDS011;19136;47.032;15.502;2022-07-05T09:37:15;5.40;;;0.65;;
32780;SDS011;19136;47.032;15.502;2022-07-05T09:39:41;3.58;;;0.60;;
32780;SDS011;19136;47.032;15.502;2022-07-05T09:44:54;2.33;;;0.50;;
32780;SDS011;19136;47.032;15.502;2022-07-05T09:47:22;0.55;;;0.40;;
32780;SDS011;19136;47.032;15.502;2022-07-05T09:49:53;0.75;;;0.50;;
32780;SDS011;19136;47.032;15.502;2022-07-05T09:52:39;0.50;;;0.43;;
32780;SDS011;19136;47.032;15.502;2022-07-05T09:55:15;3.22;;;0.50;;
32780;SDS011;19136;47.032;15.502;2022-07-05T09:57:45;0.20;;;0.20;;
32780;SDS011;19136;47.032;15.502;2022-07-05T10:00:13;0.98;;;0.50;;
32780;SDS011;19136;47.032;15.502;2022-07-05T10:05:16;0.40;;;0.40;;
32780;SDS011;19136;47.032;15.502;2022-07-05T10:07:49;0.80;;;0.60;;
32780;SDS011;19136;47.032;15.502;2022-07-05T10:10:25;0.82;;;0.50;;
32780;SDS011;19136;47.032;15.502;2022-07-05T10:12:53;0.30;;;0.30;;
32780;SDS011;19136;47.032;15.502;2022-07-05T10:15:24;1.30;;;0.32;;
32780;SDS011;19136;47.032;15.502;2022-07-05T10:23:05;0.50;;;0.40;;
32780;SDS011;19136;47.032;15.502;2022-07-05T10:25:36;2.47;;;0.30;;
32780;SDS011;19136;47.032;15.502;2022-07-05T10:28:03;0.32;;;0.20;;
32780;SDS011;19136;47.032;15.502;2022-07-05T10:30:29;1.40;;;0.32;;
32780;SDS011;19136;47.032;15.502;2022-07-05T10:32:56;0.65;;;0.40;;
32780;SDS011;19136;47.032;15.502;2022-07-05T10:35:22;0.22;;;0.22;;
32780;SDS011;19136;47.032;15.502;2022-07-05T10:37:48;0.43;;;0.40;;
32780;SDS011;19136;47.032;15.502;2022-07-05T10:40:14;1.38;;;0.30;;
32780;SDS011;19136;47.032;15.502;2022-07-05T10:43:02;2.75;;;0.30;;
32780;SDS011;19136;47.032;15.502;2022-07-05T10:45:31;2.28;;;0.50;;
32780;SDS011;19136;47.032;15.502;2022-07-05T10:50:42;0.30;;;0.22;;
32780;SDS011;19136;47.032;15.502;2022-07-05T10:53:07;0.90;;;0.20;;
32780;SDS011;19136;47.032;15.502;2022-07-05T10:55:46;0.77;;;0.30;;
32780;SDS011;19136;47.032;15.502;2022-07-05T10:58:22;1.10;;;0.45;;
32780;SDS011;19136;47.032;15.502;2022-07-05T11:03:48;1.65;;;0.30;;
32780;SDS011;19136;47.032;15.502;2022-07-05T11:11:28;4.05;;;0.55;;
32780;SDS011;19136;47.032;15.502;2022-07-05T11:13:55;3.13;;;0.20;;
32780;SDS011;19136;47.032;15.502;2022-07-05T11:16:23;0.30;;;0.20;;
32780;SDS011;19136;47.032;15.502;2022-07-05T11:19:09;0.30;;;0.30;;
32780;SDS011;19136;47.032;15.502;2022-07-05T11:21:36;0.88;;;0.30;;
32780;SDS011;19136;47.032;15.502;2022-07-05T11:26:47;0.45;;;0.20;;
32780;SDS011;19136;47.032;15.502;2022-07-05T11:32:05;0.20;;;0.20;;
32780;SDS011;19136;47.032;15.502;2022-07-05T11:34:32;1.15;;;0.28;;
32780;SDS011;19136;47.032;15.502;2022-07-05T11:39:39;0.40;;;0.20;;
32780;SDS011;19136;47.032;15.502;2022-07-05T11:42:05;0.68;;;0.30;;
32780;SDS011;19136;47.032;15.502;2022-07-05T11:44:35;0.35;;;0.30;;
32780;SDS011;19136;47.032;15.502;2022-07-05T11:47:02;0.93;;;0.35;;
32780;SDS011;19136;47.032;15.502;2022-07-05T11:49:28;0.75;;;0.28;;
32780;SDS011;19136;47.032;15.502;2022-07-05T11:51:59;0.88;;;0.30;;
32780;SDS011;19136;47.032;15.502;2022-07-05T11:54:26;0.50;;;0.30;;
32780;SDS011;19136;47.032;15.502;2022-07-05T11:56:55;0.30;;;0.30;;
32780;SDS011;19136;47.032;15.502;2022-07-05T11:59:21;1.08;;;0.40;;
32780;SDS011;19136;47.032;15.502;2022-07-05T12:01:49;0.30;;;0.20;;
32780;SDS011;19136;47.032;15.502;2022-07-05T12:04:25;0.20;;;0.20;;
32780;SDS011;19136;47.032;15.502;2022-07-05T12:06:51;0.30;;;0.30;;
32780;SDS011;19136;47.032;15.502;2022-07-05T12:09:24;1.40;;;0.30;;
32780;SDS011;19136;47.032;15.502;2022-07-05T12:11:53;0.75;;;0.30;;
32780;SDS011;19136;47.032;15.502;2022-07-05T12:14:46;1.05;;;0.30;;
32780;SDS011;19136;47.032;15.502;2022-07-05T12:17:17;0.40;;;0.28;;
32780;SDS011;19136;47.032;15.502;2022-07-05T12:19:44;1.27;;;0.20;;
32780;SDS011;19136;47.032;15.502;2022-07-05T12:22:10;0.47;;;0.32;;
32780;SDS011;19136;47.032;15.502;2022-07-05T12:24:36;1.90;;;0.50;;
32780;SDS011;19136;47.032;15.502;2022-07-05T12:27:01;0.50;;;0.30;;
32780;SDS011;19136;47.032;15.502;2022-07-05T12:29:27;2.03;;;0.30;;
32780;SDS011;19136;47.032;15.502;2022-07-05T12:32:06;6.13;;;0.40;;
32780;SDS011;19136;47.032;15.502;2022-07-05T12:34:34;0.75;;;0.35;;
32780;SDS011;19136;47.032;15.502;2022-07-05T12:37:00;1.40;;;0.45;;
32780;SDS011;19136;47.032;15.502;2022-07-05T12:39:25;1.98;;;0.40;;
32780;SDS011;19136;47.032;15.502;2022-07-05T12:41:51;2.47;;;0.55;;
32780;SDS011;19136;47.032;15.502;2022-07-05T12:44:20;0.98;;;0.50;;
32780;SDS011;19136;47.032;15.502;2022-07-05T12:46:46;3.35;;;0.40;;
32780;SDS011;19136;47.032;15.502;2022-07-05T12:49:12;0.57;;;0.30;;
32780;SDS011;19136;47.032;15.502;2022-07-05T12:51:38;0.68;;;0.30;;
32780;SDS011;19136;47.032;15.502;2022-07-05T12:54:17;1.20;;;0.60;;
32780;SDS011;19136;47.032;15.502;2022-07-05T12:57:03;1.95;;;0.50;;
32780;SDS011;19136;47.032;15.502;2022-07-05T13:00:06;1.17;;;0.40;;
32780;SDS011;19136;47.032;15.502;2022-07-05T13:02:39;1.58;;;0.50;;
32780;SDS011;19136;47.032;15.502;2022-07-05T13:05:07;2.20;;;0.40;;
32780;SDS011;19136;47.032;15.502;2022-07-05T13:07:40;1.02;;;0.50;;
32780;SDS011;19136;47.032;15.502;2022-07-05T13:12:50;5.70;;;0.57;;
32780;SDS011;19136;47.032;15.502;2022-07-05T13:15:16;1.63;;;0.50;;
32780;SDS011;19136;47.032;15.502;2022-07-05T13:17:42;1.17;;;0.70;;
32780;SDS011;19136;47.032;15.502;2022-07-05T13:20:08;0.98;;;0.50;;
32780;SDS011;19136;47.032;15.502;2022-07-05T13:22:34;1.60;;;0.63;;
32780;SDS011;19136;47.032;15.502;2022-07-05T13:25:00;1.35;;;0.60;;
32780;SDS011;19136;47.032;15.502;2022-07-05T13:27:25;1.55;;;0.70;;
32780;SDS011;19136;47.032;15.502;2022-07-05T13:29:54;3.92;;;0.80;;
32780;SDS011;19136;47.032;15.502;2022-07-05T13:32:20;1.52;;;0.63;;
32780;SDS011;19136;47.032;15.502;2022-07-05T13:34:46;0.85;;;0.50;;
32780;SDS011;19136;47.032;15.502;2022-07-05T13:37:18;0.93;;;0.68;;
32780;SDS011;19136;47.032;15.502;2022-07-05T13:39:44;1.98;;;0.60;;
32780;SDS011;19136;47.032;15.502;2022-07-05T13:42:09;2.90;;;0.60;;
32780;SDS011;19136;47.032;15.502;2022-07-05T13:44:35;2.38;;;0.98;;
32780;SDS011;19136;47.032;15.502;2022-07-05T13:47:01;1.75;;;0.70;;
32780;SDS011;19136;47.032;15.502;2022-07-05T13:49:26;4.63;;;0.75;;
32780;SDS011;19136;47.032;15.502;2022-07-05T13:51:52;2.45;;;0.70;;
32780;SDS011;19136;47.032;15.502;2022-07-05T13:54:17;1.92;;;0.90;;
32780;SDS011;19136;47.032;15.502;2022-07-05T13:56:43;0.82;;;0.60;;
32780;SDS011;19136;47.032;15.502;2022-07-05T13:59:08;1.58;;;0.60;;
32780;SDS011;19136;47.032;15.502;2022-07-05T14:01:34;2.63;;;0.93;;
32780;SDS011;19136;47.032;15.502;2022-07-05T14:04:00;1.55;;;0.80;;
32780;SDS011;19136;47.032;15.502;2022-07-05T14:06:31;1.25;;;0.73;;
32780;SDS011;19136;47.032;15.502;2022-07-05T14:08:57;4.75;;;0.70;;
32780;SDS011;19136;47.032;15.502;2022-07-05T14:11:23;2.13;;;0.80;;
32780;SDS011;19136;47.032;15.502;2022-07-05T14:13:53;6.78;;;1.00;;
32780;SDS011;19136;47.032;15.502;2022-07-05T14:16:24;1.85;;;0.80;;
32780;SDS011;19136;47.032;15.502;2022-07-05T14:18:50;1.70;;;0.85;;
32780;SDS011;19136;47.032;15.502;2022-07-05T14:21:17;2.78;;;0.90;;
32780;SDS011;19136;47.032;15.502;2022-07-05T14:23:43;2.47;;;0.73;;
32780;SDS011;19136;47.032;15.502;2022-07-05T14:26:12;2.83;;;0.73;;
32780;SDS011;19136;47.032;15.502;2022-07-05T14:28:38;3.88;;;0.80;;
32780;SDS011;19136;47.032;15.502;2022-07-05T14:31:03;2.80;;;0.80;;
32780;SDS011;19136;47.032;15.502;2022-07-05T14:33:29;2.55;;;1.15;;
32780;SDS011;19136;47.032;15.502;2022-07-05T14:35:54;3.80;;;0.88;;
32780;SDS011;19136;47.032;15.502;2022-07-05T14:38:20;2.50;;;0.80;;
32780;SDS011;19136;47.032;15.502;2022-07-05T14:40:45;3.03;;;0.90;;
32780;SDS011;19136;47.032;15.502;2022-07-05T14:43:11;2.28;;;0.80;;
32780;SDS011;19136;47.032;15.502;2022-07-05T14:45:36;2.90;;;0.75;;
32780;SDS011;19136;47.032;15.502;2022-07-05T14:48:02;4.00;;;1.08;;
32780;SDS011;19136;47.032;15.502;2022-07-05T14:50:28;1.25;;;0.75;;
32780;SDS011;19136;47.032;15.502;2022-07-05T14:52:53;3.58;;;0.88;;
32780;SDS011;19136;47.032;15.502;2022-07-05T14:55:19;1.40;;;0.93;;
32780;SDS011;19136;47.032;15.502;2022-07-05T14:57:44;2.25;;;0.88;;
32780;SDS011;19136;47.032;15.502;2022-07-05T15:00:11;3.08;;;1.10;;
32780;SDS011;19136;47.032;15.502;2022-07-05T15:02:38;2.38;;;1.00;;
32780;SDS011;19136;47.032;15.502;2022-07-05T15:05:04;1.73;;;0.95;;
32780;SDS011;19136;47.032;15.502;2022-07-05T15:07:30;3.10;;;0.70;;
32780;SDS011;19136;47.032;15.502;2022-07-05T15:09:56;4.25;;;0.85;;
32780;SDS011;19136;47.032;15.502;2022-07-05T15:12:21;4.55;;;1.00;;
32780;SDS011;19136;47.032;15.502;2022-07-05T15:14:47;1.50;;;0.93;;